YAYE/AYQ METAR and TAF weather

Enter ICAO airport designator
Station Type Date Time Source
YAYE METAR 2019/06/18 04:00 UTC NOAA

YAYE 180400Z AUTO 09013KT 9999 // NCD 18/02 Q1024


Station Type Date Time Source
YAYE Decoded METAR 2019/06/18 04:00 UTC NOAA

Ayers Rock, Australia (YAYE) 25-11S 130-58E
Jun 18, 2019 - 12:00 AM EDT / 2019.06.18 0400 UTC
Wind: from the E (090 degrees) at 15 MPH (13 KT):0
Visibility: greater than 7 mile(s):0
Temperature: 64 F (18 C)
Dew Point: 35 F (2 C)
Relative Humidity: 34%
Pressure (altimeter): 30.24 in. Hg (1024 hPa)
ob: YAYE 180400Z AUTO 09013KT 9999 // NCD 18/02 Q1024
cycle: 4

Station Type Date Time Source
YAYE TAF UTC NOAA

Error!

Example: see airport list